Time;durP1;ratioP1;P1;durP2;ratioP2;P2;SDS_P1;SDS_P2;PMS_P1;PMS_P2;Temp;Humidity;BMP_temperature;BMP_pressure;BME280_temperature;BME280_humidity;BME280_pressure;Samples;Min_cycle;Max_cycle;Signal;HPM_P1;HPM_P2
2023/10/04 00:00:27;;;;;;;16.15;3.50;;;14.70;99.90;;;;;;5035629;28;20049;-77
2023/10/04 00:02:54;;;;;;;16.65;3.22;;;14.70;99.90;;;;;;5034199;28;20124;-76
2023/10/04 00:05:24;;;;;;;20.08;2.85;;;14.70;99.90;;;;;;5034478;28;20049;-76
2023/10/04 00:07:52;;;;;;;19.25;3.45;;;14.70;99.90;;;;;;5034294;28;20037;-76
2023/10/04 00:10:19;;;;;;;14.25;3.15;;;14.70;99.90;;;;;;5035332;28;20103;-76
2023/10/04 00:12:46;;;;;;;12.65;2.50;;;14.70;99.90;;;;;;5033916;28;20042;-76
2023/10/04 00:15:13;;;;;;;17.77;2.50;;;14.70;99.90;;;;;;5034262;28;20045;-76
2023/10/04 00:17:44;;;;;;;15.32;2.65;;;14.70;99.90;;;;;;5033997;28;20050;-76
2023/10/04 00:20:13;;;;;;;14.18;2.80;;;14.80;99.90;;;;;;5033927;28;20049;-76
2023/10/04 00:22:40;;;;;;;19.05;3.05;;;14.70;99.90;;;;;;5034224;28;20091;-77
2023/10/04 00:25:20;;;;;;;17.17;3.15;;;14.80;99.90;;;;;;5033974;28;20061;-77
2023/10/04 00:27:52;;;;;;;12.38;2.80;;;14.70;99.90;;;;;;5033806;28;20045;-76
2023/10/04 00:30:18;;;;;;;18.17;2.88;;;14.80;99.90;;;;;;5034895;28;20489;-77
2023/10/04 00:32:48;;;;;;;16.92;3.88;;;14.70;99.90;;;;;;5033810;28;20543;-76
2023/10/04 00:35:15;;;;;;;19.92;3.40;;;14.80;99.90;;;;;;5033678;28;20056;-76
2023/10/04 00:37:42;;;;;;;21.55;3.60;;;14.80;99.90;;;;;;5033427;28;20033;-76
2023/10/04 00:40:18;;;;;;;18.90;3.45;;;14.70;99.90;;;;;;5034570;28;20057;-76
2023/10/04 00:42:47;;;;;;;16.85;3.20;;;14.70;99.90;;;;;;5033512;28;20053;-76
2023/10/04 00:45:13;;;;;;;17.27;3.65;;;14.60;99.90;;;;;;5033743;28;20575;-76
2023/10/04 00:47:47;;;;;;;17.00;2.63;;;14.70;99.90;;;;;;5034656;28;20470;-76
2023/10/04 00:50:17;;;;;;;14.32;3.20;;;14.60;99.90;;;;;;5033340;28;20131;-76
2023/10/04 00:52:57;;;;;;;17.38;3.00;;;14.60;99.90;;;;;;5032802;28;20505;-76
2023/10/04 00:55:24;;;;;;;19.05;3.15;;;14.60;99.90;;;;;;5034646;28;20053;-77
2023/10/04 00:57:54;;;;;;;15.27;3.10;;;14.50;99.90;;;;;;5033317;28;20483;-76
2023/10/04 01:00:20;;;;;;;17.25;3.20;;;14.50;99.90;;;;;;5033457;28;20083;-76
2023/10/04 01:02:47;;;;;;;15.18;2.55;;;14.40;99.90;;;;;;5034249;28;20080;-76
2023/10/04 01:05:15;;;;;;;12.88;2.95;;;14.40;99.90;;;;;;5033263;28;20049;-76
2023/10/04 01:07:42;;;;;;;16.90;2.75;;;14.40;99.90;;;;;;5033005;28;20120;-76
2023/10/04 01:10:16;;;;;;;19.45;3.78;;;14.40;99.90;;;;;;5033133;28;20049;-77
2023/10/04 01:12:46;;;;;;;16.38;3.00;;;14.30;99.90;;;;;;5033021;28;20080;-77
2023/10/04 01:15:36;;;;;;;16.20;3.03;;;14.30;99.90;;;;;;5033058;28;20063;-76
2023/10/04 01:18:07;;;;;;;13.38;2.95;;;14.30;99.90;;;;;;5032853;28;20080;-76
2023/10/04 01:20:38;;;;;;;14.43;3.38;;;14.30;99.90;;;;;;5032903;28;20048;-76
2023/10/04 01:23:10;;;;;;;12.40;3.17;;;14.20;99.90;;;;;;5034074;28;20508;-76
2023/10/04 01:25:46;;;;;;;12.70;2.60;;;14.20;99.90;;;;;;5032945;28;20060;-76
2023/10/04 01:28:17;;;;;;;15.05;3.13;;;14.10;99.90;;;;;;5032675;28;20292;-76
2023/10/04 01:30:48;;;;;;;17.48;3.13;;;14.10;99.90;;;;;;5032681;28;20168;-76
2023/10/04 01:33:18;;;;;;;16.07;2.97;;;14.10;99.90;;;;;;5032701;28;20079;-76
2023/10/04 01:35:46;;;;;;;14.63;3.00;;;14.10;99.90;;;;;;5033905;28;20060;-77
2023/10/04 01:38:13;;;;;;;18.80;3.38;;;14.10;99.90;;;;;;5032327;28;20057;-76
2023/10/04 01:40:42;;;;;;;20.75;3.17;;;14.00;99.90;;;;;;5032350;28;20064;-76
2023/10/04 01:43:18;;;;;;;17.70;3.65;;;14.00;99.90;;;;;;5033851;28;20052;-76
2023/10/04 01:45:59;;;;;;;17.67;3.22;;;14.00;99.90;;;;;;5032781;28;20045;-76
2023/10/04 01:48:27;;;;;;;13.27;2.75;;;13.90;99.90;;;;;;5034228;28;20049;-76
2023/10/04 01:50:53;;;;;;;14.38;3.13;;;13.90;99.90;;;;;;5032215;28;20050;-76
2023/10/04 01:53:25;;;;;;;17.63;3.05;;;13.80;99.90;;;;;;5032589;28;20048;-76
2023/10/04 01:55:52;;;;;;;20.75;3.20;;;13.90;99.90;;;;;;5032383;28;20048;-76
2023/10/04 01:58:26;;;;;;;18.77;3.95;;;13.90;99.90;;;;;;5032666;28;20053;-76
2023/10/04 02:00:53;;;;;;;15.95;3.22;;;13.90;99.90;;;;;;5033726;28;20044;-76
2023/10/04 02:03:20;;;;;;;19.10;3.38;;;13.90;99.90;;;;;;5034786;28;20041;-76
2023/10/04 02:05:48;;;;;;;19.13;3.10;;;13.80;99.90;;;;;;5038672;28;20485;-77
2023/10/04 02:08:15;;;;;;;20.73;2.88;;;13.80;99.90;;;;;;5040126;28;20038;-77
2023/10/04 02:10:50;;;;;;;17.38;3.05;;;13.80;99.90;;;;;;5038900;28;20041;-76
2023/10/04 02:13:17;;;;;;;15.52;2.97;;;13.70;99.90;;;;;;5039071;28;20136;-76
2023/10/04 02:15:51;;;;;;;16.60;3.40;;;13.70;99.90;;;;;;5038697;28;20049;-76
2023/10/04 02:18:18;;;;;;;18.90;3.60;;;13.70;99.90;;;;;;5038929;28;20416;-76
2023/10/04 02:20:48;;;;;;;18.13;2.67;;;13.70;99.90;;;;;;5038735;28;20049;-77
2023/10/04 02:23:16;;;;;;;18.75;3.70;;;13.80;99.90;;;;;;5039083;28;20127;-77
2023/10/04 02:25:42;;;;;;;20.63;3.47;;;13.80;99.90;;;;;;5038953;28;20116;-77
2023/10/04 02:28:22;;;;;;;17.38;2.80;;;13.80;99.90;;;;;;5040016;28;20450;-77
2023/10/04 02:30:49;;;;;;;16.75;3.00;;;13.80;99.90;;;;;;5038482;28;20080;-76
2023/10/04 02:33:16;;;;;;;17.45;3.80;;;13.80;99.90;;;;;;5038606;28;20056;-77
2023/10/04 02:35:44;;;;;;;19.70;3.40;;;13.80;99.90;;;;;;5038610;28;20128;-76
2023/10/04 02:38:23;;;;;;;16.52;3.50;;;13.90;99.90;;;;;;5038741;28;20068;-76
2023/10/04 02:40:50;;;;;;;19.65;2.90;;;13.90;99.90;;;;;;5038701;28;20064;-76
2023/10/04 02:43:17;;;;;;;17.42;3.55;;;13.90;99.90;;;;;;5038437;28;20435;-77
2023/10/04 02:45:43;;;;;;;14.25;2.75;;;13.90;99.90;;;;;;5038557;28;20111;-76
2023/10/04 02:48:10;;;;;;;18.95;3.90;;;13.90;99.90;;;;;;5038545;28;20045;-76
2023/10/04 02:50:45;;;;;;;17.15;2.88;;;13.90;99.90;;;;;;5038204;28;20081;-76
2023/10/04 02:53:13;;;;;;;12.60;2.63;;;13.90;99.90;;;;;;5038360;28;20041;-76
2023/10/04 02:55:40;;;;;;;16.65;2.67;;;13.90;99.90;;;;;;5038603;28;20128;-77
2023/10/04 02:58:06;;;;;;;14.48;2.47;;;13.90;99.90;;;;;;5039760;28;20053;-76
2023/10/04 03:00:33;;;;;;;20.40;3.55;;;13.90;99.90;;;;;;5038473;28;20060;-77
2023/10/04 03:02:59;;;;;;;28.63;4.07;;;13.90;99.90;;;;;;5039671;28;20057;-77
2023/10/04 03:05:28;;;;;;;29.95;4.00;;;13.90;99.90;;;;;;5038382;28;20068;-77
2023/10/04 03:07:54;;;;;;;25.02;3.60;;;13.80;99.90;;;;;;5039657;28;20087;-77
2023/10/04 03:10:27;;;;;;;20.75;3.72;;;13.70;99.90;;;;;;5039428;28;20131;-78
2023/10/04 03:12:56;;;;;;;;;;;13.70;99.90;;;;;;5040015;28;20037;-78
2023/10/04 03:15:23;;;;;;;19.77;3.08;;;13.70;99.90;;;;;;5036441;28;20387;-78
2023/10/04 03:17:52;;;;;;;20.38;4.45;;;13.70;99.90;;;;;;5036345;28;20045;-77
2023/10/04 03:20:21;;;;;;;16.25;3.58;;;13.70;99.90;;;;;;5034998;28;20132;-78
2023/10/04 03:22:48;;;;;;;15.68;3.88;;;13.60;99.90;;;;;;5036255;28;20167;-78
2023/10/04 03:25:17;;;;;;;17.83;3.78;;;13.70;99.90;;;;;;5035046;28;20053;-77
2023/10/04 03:27:44;;;;;;;13.10;3.50;;;13.60;99.90;;;;;;5035030;28;20045;-77
2023/10/04 03:30:14;;;;;;;14.63;3.22;;;13.60;99.90;;;;;;5034963;28;20120;-77
2023/10/04 03:32:56;;;;;;;20.35;3.80;;;13.60;99.90;;;;;;5035060;28;20473;-77
2023/10/04 03:35:26;;;;;;;18.20;4.13;;;13.60;99.90;;;;;;5036512;28;20068;-77
2023/10/04 03:37:58;;;;;;;17.30;3.08;;;13.60;99.90;;;;;;5034848;28;20055;-77
2023/10/04 03:40:34;;;;;;;19.77;3.25;;;13.60;99.90;;;;;;5034689;28;20068;-77
2023/10/04 03:43:00;;;;;;;21.27;3.47;;;13.50;99.90;;;;;;5035073;28;20053;-77
2023/10/04 03:45:26;;;;;;;19.42;3.97;;;13.50;99.90;;;;;;5035989;28;20089;-77
2023/10/04 03:47:54;;;;;;;17.75;3.92;;;13.50;99.90;;;;;;5034521;28;20463;-77
2023/10/04 03:50:19;;;;;;;18.98;4.47;;;13.50;99.90;;;;;;5034557;28;20048;-77
2023/10/04 03:52:47;;;;;;;25.75;4.20;;;13.50;99.90;;;;;;5034759;28;20393;-77
2023/10/04 03:55:13;;;;;;;17.38;3.45;;;13.60;99.90;;;;;;5034492;28;20516;-77
2023/10/04 03:57:42;;;;;;;22.27;4.30;;;13.60;99.90;;;;;;5034144;28;20049;-77
2023/10/04 04:00:16;;;;;;;15.32;3.20;;;13.50;99.90;;;;;;5034539;28;20050;-77
2023/10/04 04:02:43;;;;;;;22.63;3.00;;;13.50;99.90;;;;;;5035672;28;20030;-77
2023/10/04 04:05:09;;;;;;;11.88;2.90;;;13.40;99.90;;;;;;5035712;28;20049;-77
2023/10/04 04:07:36;;;;;;;12.50;2.70;;;13.50;99.90;;;;;;5035550;28;20045;-77
2023/10/04 04:10:07;;;;;;;17.50;3.65;;;13.40;99.90;;;;;;5035382;28;20132;-77
2023/10/04 04:12:37;;;;;;;24.33;3.95;;;13.40;99.90;;;;;;5035282;28;20049;-77
2023/10/04 04:15:04;;;;;;;15.65;3.85;;;13.40;99.90;;;;;;5034271;28;20049;-77
2023/10/04 04:17:29;;;;;;;15.10;3.40;;;13.40;99.90;;;;;;5034092;28;20056;-77
2023/10/04 04:19:55;;;;;;;18.42;3.97;;;13.40;99.90;;;;;;5035283;28;20037;-77
2023/10/04 04:22:24;;;;;;;19.70;3.72;;;13.40;99.90;;;;;;5033961;28;20107;-77
2023/10/04 04:24:50;;;;;;;19.75;4.07;;;13.40;99.90;;;;;;5033727;28;20120;-77
2023/10/04 04:27:21;;;;;;;16.05;3.30;;;13.40;99.90;;;;;;5033796;28;20045;-77
2023/10/04 04:29:48;;;;;;;23.30;3.80;;;13.40;99.90;;;;;;5033713;28;20456;-77
2023/10/04 04:32:16;;;;;;;15.00;2.80;;;13.30;99.90;;;;;;5033579;28;20120;-77
2023/10/04 04:34:42;;;;;;;18.33;3.38;;;13.40;99.90;;;;;;5033784;28;20481;-77
2023/10/04 04:37:08;;;;;;;15.15;3.53;;;13.40;99.90;;;;;;5033522;28;20044;-77
2023/10/04 04:39:34;;;;;;;22.48;3.53;;;13.40;99.90;;;;;;5034622;28;20085;-77
2023/10/04 04:42:00;;;;;;;14.73;3.13;;;13.40;99.90;;;;;;5034929;28;20080;-77
2023/10/04 04:44:35;;;;;;;20.25;3.50;;;13.40;99.90;;;;;;5034966;28;20052;-77
2023/10/04 04:47:01;;;;;;;19.17;3.55;;;13.40;99.90;;;;;;5033545;28;20499;-77
2023/10/04 04:49:26;;;;;;;15.52;3.40;;;13.50;99.90;;;;;;5034570;28;20041;-77
2023/10/04 04:51:52;;;;;;;13.88;3.38;;;13.50;99.90;;;;;;5033262;28;20045;-77
2023/10/04 04:54:18;;;;;;;15.18;3.47;;;13.50;99.90;;;;;;5033220;28;20045;-77
2023/10/04 04:56:44;;;;;;;16.30;3.22;;;13.50;99.90;;;;;;5034574;28;20079;-77
2023/10/04 04:59:10;;;;;;;24.23;4.55;;;13.50;99.90;;;;;;5033085;28;20405;-77
2023/10/04 05:01:39;;;;;;;20.30;4.90;;;13.50;99.90;;;;;;5033497;28;20080;-77
2023/10/04 05:04:06;;;;;;;18.63;3.65;;;13.50;99.90;;;;;;5032917;28;20092;-77
2023/10/04 05:06:32;;;;;;;18.00;3.92;;;13.40;99.90;;;;;;5032986;28;20050;-77
2023/10/04 05:08:58;;;;;;;15.85;3.50;;;13.40;99.90;;;;;;5034211;28;20053;-77
2023/10/04 05:11:24;;;;;;;21.38;3.33;;;13.40;99.90;;;;;;5032946;28;20140;-77
2023/10/04 05:13:51;;;;;;;19.13;4.13;;;13.30;99.90;;;;;;5033082;28;20477;-77
2023/10/04 05:16:17;;;;;;;14.50;3.88;;;13.40;99.90;;;;;;5033295;28;20104;-77
2023/10/04 05:18:43;;;;;;;19.45;3.83;;;13.30;99.90;;;;;;5034086;28;20450;-77
2023/10/04 05:21:10;;;;;;;14.85;4.07;;;13.30;99.90;;;;;;5034190;28;20111;-77
2023/10/04 05:23:36;;;;;;;24.15;4.47;;;13.30;99.90;;;;;;5034112;28;20073;-77
2023/10/04 05:26:03;;;;;;;16.83;4.28;;;13.30;99.90;;;;;;5033018;28;20100;-77
2023/10/04 05:28:29;;;;;;;20.27;4.57;;;13.20;99.90;;;;;;5034082;28;20053;-77
2023/10/04 05:30:55;;;;;;;24.35;4.57;;;13.20;99.90;;;;;;5032493;28;20048;-77
2023/10/04 05:33:22;;;;;;;15.48;3.85;;;13.20;99.90;;;;;;5032662;28;20045;-77
2023/10/04 05:35:53;;;;;;;19.10;4.40;;;13.30;99.90;;;;;;5032397;28;20099;-77
2023/10/04 05:38:24;;;;;;;16.38;3.90;;;13.30;99.90;;;;;;5031759;28;20374;-77
2023/10/04 05:40:51;;;;;;;21.88;4.70;;;13.20;99.90;;;;;;5031837;28;20053;-77
2023/10/04 05:43:18;;;;;;;18.50;4.18;;;13.30;99.90;;;;;;5031947;28;20076;-77
2023/10/04 05:45:47;;;;;;;20.23;4.35;;;13.20;99.90;;;;;;5033627;28;20049;-77
2023/10/04 05:48:14;;;;;;;22.23;4.18;;;13.20;99.90;;;;;;5032503;28;20053;-77
2023/10/04 05:50:40;;;;;;;20.23;4.97;;;13.20;99.90;;;;;;5032217;28;20053;-77
2023/10/04 05:53:07;;;;;;;19.67;4.28;;;13.20;99.90;;;;;;5032204;28;20056;-77
2023/10/04 05:55:39;;;;;;;24.20;5.30;;;13.20;99.90;;;;;;5033340;28;20049;-77
2023/10/04 05:58:10;;;;;;;21.17;4.95;;;13.10;99.90;;;;;;5033331;28;20053;-77
2023/10/04 06:00:42;;;;;;;22.48;4.38;;;13.10;99.90;;;;;;5033315;28;21286;-77
2023/10/04 06:03:11;;;;;;;23.40;4.78;;;13.10;99.90;;;;;;5032291;28;20056;-77
2023/10/04 06:05:42;;;;;;;17.00;4.65;;;13.10;99.90;;;;;;5032353;28;20128;-77
2023/10/04 06:08:18;;;;;;;19.58;4.22;;;13.10;99.90;;;;;;5033522;28;20052;-75
2023/10/04 06:10:44;;;;;;;16.75;4.28;;;13.00;99.90;;;;;;5032065;28;20053;-77
2023/10/04 06:13:13;;;;;;;20.27;4.18;;;13.00;99.90;;;;;;5032015;28;20041;-78
2023/10/04 06:15:44;;;;;;;14.35;4.13;;;13.00;99.90;;;;;;5047632;28;20081;-77
2023/10/04 06:18:12;;;;;;;18.65;4.10;;;13.00;99.90;;;;;;5052104;28;20048;-77
2023/10/04 06:20:40;;;;;;;19.23;4.25;;;13.00;99.90;;;;;;5051720;28;20095;-77
2023/10/04 06:23:09;;;;;;;24.17;4.35;;;13.00;99.90;;;;;;5051646;28;20045;-77
2023/10/04 06:25:45;;;;;;;13.60;3.95;;;12.90;99.90;;;;;;5051948;28;20064;-77
2023/10/04 06:28:12;;;;;;;19.05;4.97;;;12.90;99.90;;;;;;5052182;28;20053;-77
2023/10/04 06:30:39;;;;;;;13.60;4.03;;;13.00;99.90;;;;;;5051781;28;20488;-77
2023/10/04 06:33:08;;;;;;;11.98;3.53;;;12.90;99.90;;;;;;5051689;28;20052;-77
2023/10/04 06:35:33;;;;;;;15.45;3.75;;;12.90;99.90;;;;;;5051706;28;20123;-77
2023/10/04 06:38:01;;;;;;;17.52;4.53;;;12.90;99.90;;;;;;5053098;28;20076;-77
2023/10/04 06:40:31;;;;;;;18.00;4.15;;;12.90;99.90;;;;;;5051446;28;20061;-77
2023/10/04 06:43:00;;;;;;;22.17;4.32;;;12.90;99.90;;;;;;5051774;28;20061;-76
2023/10/04 06:45:29;;;;;;;16.42;5.03;;;12.90;99.90;;;;;;5051436;28;20106;-77
2023/10/04 06:47:57;;;;;;;18.13;4.95;;;13.00;99.90;;;;;;5052100;28;20056;-77
2023/10/04 06:50:38;;;;;;;14.75;3.92;;;13.00;99.90;;;;;;5051801;28;20057;-77
2023/10/04 06:53:04;;;;;;;15.68;4.82;;;13.00;99.90;;;;;;5056877;28;20087;-76
2023/10/04 06:55:32;;;;;;;15.57;4.35;;;13.10;99.90;;;;;;5055363;28;20041;-76
2023/10/04 06:57:58;;;;;;;19.98;4.90;;;13.10;99.90;;;;;;5055270;28;20511;-78
2023/10/04 07:00:26;;;;;;;21.95;4.47;;;13.10;99.90;;;;;;5056669;28;20120;-77
2023/10/04 07:02:58;;;;;;;15.68;4.45;;;13.10;99.90;;;;;;5055102;28;20041;-77
2023/10/04 07:05:44;;;;;;;18.88;5.07;;;13.10;99.90;;;;;;5056674;28;20045;-76
2023/10/04 07:08:16;;;;;;;18.13;4.65;;;13.20;99.90;;;;;;5055207;28;20184;-77
2023/10/04 07:10:42;;;;;;;17.60;5.05;;;13.20;99.90;;;;;;5055056;28;20052;-77
2023/10/04 07:13:08;;;;;;;20.90;4.85;;;13.30;99.90;;;;;;5054849;28;20060;-77
2023/10/04 07:15:39;;;;;;;17.52;4.53;;;13.40;99.90;;;;;;5056141;28;20040;-77
2023/10/04 07:18:10;;;;;;;20.25;5.57;;;13.40;99.90;;;;;;5056284;28;20106;-77
2023/10/04 07:20:36;;;;;;;15.93;5.28;;;13.50;99.90;;;;;;5055138;28;20545;-76
2023/10/04 07:23:07;;;;;;;19.13;4.72;;;13.50;99.90;;;;;;5054985;28;20077;-77
2023/10/04 07:25:36;;;;;;;20.40;6.15;;;13.60;99.90;;;;;;5056172;28;20056;-77
2023/10/04 07:28:03;;;;;;;21.30;5.32;;;13.60;99.90;;;;;;5054588;28;20473;-77
2023/10/04 07:30:36;;;;;;;17.83;4.93;;;13.70;99.90;;;;;;5054708;28;20094;-77
2023/10/04 07:33:02;;;;;;;18.70;4.38;;;13.80;99.90;;;;;;5054800;28;20124;-77
2023/10/04 07:35:28;;;;;;;17.55;5.60;;;13.80;99.90;;;;;;5054866;28;20103;-77
2023/10/04 07:37:58;;;;;;;15.20;4.80;;;13.90;99.90;;;;;;5054626;28;20045;-77
2023/10/04 07:40:26;;;;;;;15.32;4.93;;;13.90;99.90;;;;;;5054288;28;20065;-78
2023/10/04 07:42:53;;;;;;;16.05;5.05;;;14.00;99.90;;;;;;5054583;28;20381;-77
2023/10/04 07:45:21;;;;;;;19.42;4.95;;;14.00;99.90;;;;;;5054689;28;20067;-77
2023/10/04 07:47:46;;;;;;;17.90;5.50;;;14.00;99.90;;;;;;5054564;28;20053;-77
2023/10/04 07:50:15;;;;;;;19.77;4.70;;;14.20;99.90;;;;;;5055774;28;20110;-77
2023/10/04 07:52:42;;;;;;;18.40;5.35;;;14.10;99.90;;;;;;5054655;28;20049;-79
2023/10/04 07:55:18;;;;;;;18.92;4.63;;;14.20;99.90;;;;;;5054181;28;20485;-79
2023/10/04 07:58:01;;;;;;;18.23;4.40;;;14.30;99.90;;;;;;5054448;28;20056;-79
2023/10/04 08:00:26;;;;;;;18.60;5.85;;;14.40;99.90;;;;;;5054410;28;20132;-79
2023/10/04 08:02:52;;;;;;;15.75;4.70;;;14.40;99.90;;;;;;5053802;28;20132;-80
2023/10/04 08:05:25;;;;;;;24.77;5.07;;;14.40;99.90;;;;;;5054192;28;20044;-77
2023/10/04 08:07:52;;;;;;;18.58;4.65;;;14.50;99.90;;;;;;5053957;28;20091;-78
2023/10/04 08:10:23;;;;;;;19.33;5.55;;;14.60;99.90;;;;;;5053829;28;20404;-78
2023/10/04 08:12:51;;;;;;;17.75;4.70;;;14.70;99.90;;;;;;5053864;28;20056;-78
2023/10/04 08:15:20;;;;;;;17.25;4.55;;;14.70;99.90;;;;;;5053759;28;20052;-77
2023/10/04 08:17:51;;;;;;;20.30;4.70;;;14.80;99.90;;;;;;5053221;28;20045;-76
2023/10/04 08:20:18;;;;;;;17.55;4.85;;;14.90;99.90;;;;;;5053374;28;20404;-77
2023/10/04 08:22:44;;;;;;;19.73;4.30;;;14.90;99.90;;;;;;5054010;28;20164;-76
2023/10/04 08:25:13;;;;;;;18.65;5.05;;;14.90;99.90;;;;;;5053641;28;20045;-77
2023/10/04 08:27:39;;;;;;;19.55;4.53;;;15.00;99.90;;;;;;5053395;28;20552;-75
2023/10/04 08:30:06;;;;;;;18.00;4.80;;;15.00;99.90;;;;;;5032219;28;20061;-75
2023/10/04 08:32:33;;;;;;;16.55;4.53;;;15.10;99.90;;;;;;5036563;28;20056;-76
2023/10/04 08:34:59;;;;;;;27.05;5.03;;;15.20;99.90;;;;;;5049162;28;20049;-76
2023/10/04 08:37:28;;;;;;;20.05;5.18;;;15.30;99.90;;;;;;5049241;28;20053;-76
2023/10/04 08:39:55;;;;;;;19.63;4.30;;;15.30;99.90;;;;;;5048155;28;20130;-76
2023/10/04 08:42:23;;;;;;;16.30;4.25;;;15.50;99.90;;;;;;5030945;28;20045;-76
2023/10/04 08:44:49;;;;;;;19.10;4.15;;;15.60;99.90;;;;;;5044775;28;20158;-76
2023/10/04 08:47:16;;;;;;;20.10;4.35;;;15.60;99.90;;;;;;5029921;28;20397;-77
2023/10/04 08:49:52;;;;;;;14.50;4.28;;;15.60;99.90;;;;;;5030479;28;20037;-75
2023/10/04 08:52:35;;;;;;;19.13;5.03;;;15.80;99.90;;;;;;5031428;28;20101;-77
2023/10/04 08:55:06;;;;;;;21.88;5.25;;;15.80;99.90;;;;;;5033087;28;20034;-74
2023/10/04 08:57:36;;;;;;;20.13;4.53;;;15.90;99.90;;;;;;5033039;28;20091;-76
2023/10/04 09:00:10;;;;;;;20.65;5.68;;;16.00;99.90;;;;;;5033232;28;20077;-76
2023/10/04 09:02:36;;;;;;;19.55;4.50;;;16.00;99.90;;;;;;5033327;28;20041;-75
2023/10/04 09:05:04;;;;;;;22.05;5.05;;;16.10;99.90;;;;;;5034234;28;20338;-76
2023/10/04 09:07:33;;;;;;;23.55;5.30;;;16.20;99.90;;;;;;5033091;28;20049;-76
2023/10/04 09:10:00;;;;;;;16.25;4.82;;;16.20;99.90;;;;;;5032347;28;20409;-76
2023/10/04 09:12:29;;;;;;;20.77;5.05;;;16.20;99.90;;;;;;5028259;28;20060;-77
2023/10/04 09:15:04;;;;;;;18.40;4.95;;;16.30;99.90;;;;;;5045611;28;20059;-78
2023/10/04 09:17:51;;;;;;;19.63;4.20;;;16.50;99.90;;;;;;5049515;28;20037;-76
2023/10/04 09:20:19;;;;;;;16.45;5.00;;;16.50;99.90;;;;;;5048751;28;20076;-78
2023/10/04 09:22:45;;;;;;;16.60;5.05;;;16.60;99.90;;;;;;5031892;28;20111;-78
2023/10/04 09:25:11;;;;;;;16.80;4.75;;;16.70;99.90;;;;;;5030026;28;20042;-77
2023/10/04 09:27:37;;;;;;;20.98;5.13;;;16.70;99.90;;;;;;5028290;28;20049;-78
2023/10/04 09:30:21;;;;;;;16.23;4.35;;;16.80;99.90;;;;;;5029152;28;20045;-78
2023/10/04 09:32:47;;;;;;;18.30;4.50;;;16.80;99.90;;;;;;5028972;28;20540;-78
2023/10/04 09:35:13;;;;;;;20.15;5.07;;;16.80;99.90;;;;;;5027966;28;20128;-77
2023/10/04 09:37:44;;;;;;;14.73;4.90;;;16.90;99.90;;;;;;5033869;28;20060;-78
2023/10/04 09:40:12;;;;;;;17.50;4.25;;;17.00;99.90;;;;;;5047532;28;20053;-78
2023/10/04 09:42:56;;;;;;;16.08;4.38;;;17.00;99.90;;;;;;5048920;28;20049;-77
2023/10/04 09:45:31;;;;;;;20.30;5.30;;;17.00;99.90;;;;;;5047721;28;20095;-77
2023/10/04 09:48:01;;;;;;;16.88;5.18;;;17.00;99.90;;;;;;5047606;28;20095;-78
2023/10/04 09:50:26;;;;;;;21.95;5.20;;;17.00;99.90;;;;;;5049243;28;20099;-74
2023/10/04 09:52:53;;;;;;;18.83;4.57;;;17.00;99.90;;;;;;5031952;28;20048;-77
2023/10/04 09:55:25;;;;;;;12.90;4.60;;;17.00;99.90;;;;;;5030488;28;20397;-77
2023/10/04 09:57:55;;;;;;;16.35;4.88;;;17.10;99.90;;;;;;5032321;28;20045;-77
2023/10/04 10:00:22;;;;;;;18.10;5.10;;;17.00;99.90;;;;;;5032404;28;20129;-77
2023/10/04 10:02:52;;;;;;;14.48;4.40;;;17.10;99.90;;;;;;5033601;28;20049;-77
2023/10/04 10:05:26;;;;;;;26.30;8.27;;;17.10;99.90;;;;;;5032063;28;20045;-77
2023/10/04 10:07:53;;;;;;;16.27;5.22;;;17.20;99.90;;;;;;5032083;28;20382;-77
2023/10/04 10:10:21;;;;;;;19.17;5.88;;;17.30;99.90;;;;;;5031802;28;20056;-76
2023/10/04 10:12:50;;;;;;;16.50;4.88;;;17.30;99.90;;;;;;5032073;28;20038;-77
2023/10/04 10:15:18;;;;;;;18.88;4.78;;;17.20;99.90;;;;;;5032263;28;20046;-76
2023/10/04 10:17:46;;;;;;;21.65;5.13;;;17.30;99.90;;;;;;5033446;28;20046;-76
2023/10/04 10:20:15;;;;;;;17.30;5.13;;;17.30;99.90;;;;;;5033250;28;20102;-77
2023/10/04 10:23:06;;;;;;;16.13;5.57;;;17.30;99.90;;;;;;5033251;28;20040;-78
2023/10/04 10:25:33;;;;;;;20.30;5.93;;;17.40;99.90;;;;;;5032609;28;20663;-76
2023/10/04 10:28:02;;;;;;;20.70;5.25;;;17.40;99.90;;;;;;5036203;28;20608;-76
2023/10/04 10:30:30;;;;;;;16.65;5.18;;;17.40;99.90;;;;;;5035906;28;20052;-76
2023/10/04 10:32:58;;;;;;;15.93;5.55;;;17.40;99.90;;;;;;5035970;28;20048;-76
2023/10/04 10:35:48;;;;;;;19.38;5.75;;;17.40;99.90;;;;;;5035996;28;20054;-76
2023/10/04 10:38:39;;;;;;;21.92;4.78;;;17.40;99.90;;;;;;5036889;28;20514;-76
2023/10/04 10:41:09;;;;;;;19.35;5.63;;;17.20;99.90;;;;;;5035670;28;20060;-76
2023/10/04 10:43:55;;;;;;;19.70;5.63;;;17.10;99.90;;;;;;5035531;28;20049;-76
2023/10/04 10:46:31;;;;;;;19.35;5.93;;;17.10;99.90;;;;;;5036637;28;20095;-77
2023/10/04 10:49:00;;;;;;;19.08;5.20;;;17.00;99.90;;;;;;5035609;28;20050;-76
2023/10/04 10:51:45;;;;;;;21.15;5.90;;;17.00;99.90;;;;;;5035281;28;20076;-77
2023/10/04 10:54:12;;;;;;;21.63;5.30;;;16.90;99.90;;;;;;5036612;28;20041;-77
2023/10/04 10:56:38;;;;;;;21.48;5.47;;;16.90;99.90;;;;;;5035289;28;20041;-77
2023/10/04 10:59:07;;;;;;;17.38;4.72;;;16.80;99.90;;;;;;5035411;28;20096;-78
2023/10/04 11:01:32;;;;;;;18.25;4.80;;;16.80;99.90;;;;;;5035274;28;20046;-77
2023/10/04 11:03:59;;;;;;;19.42;4.95;;;16.80;99.90;;;;;;5035620;28;20053;-76
2023/10/04 11:06:25;;;;;;;23.63;4.60;;;16.80;99.90;;;;;;5035358;28;20068;-77
2023/10/04 11:08:55;;;;;;;22.30;5.63;;;16.80;99.90;;;;;;5035109;28;20478;-76
2023/10/04 11:11:22;;;;;;;18.70;5.20;;;16.70;99.90;;;;;;5035052;28;20061;-77
2023/10/04 11:13:48;;;;;;;17.23;3.80;;;16.80;99.90;;;;;;5036241;28;20049;-77
2023/10/04 11:16:14;;;;;;;20.33;4.78;;;16.70;99.90;;;;;;5035000;28;20473;-78
2023/10/04 11:18:40;;;;;;;17.77;4.80;;;16.70;99.90;;;;;;5035091;28;20100;-78
2023/10/04 11:21:06;;;;;;;13.35;4.20;;;16.70;99.90;;;;;;5035089;28;20088;-78
2023/10/04 11:23:34;;;;;;;21.10;5.18;;;16.70;99.90;;;;;;5035079;28;20045;-78
2023/10/04 11:26:00;;;;;;;15.32;4.22;;;16.70;99.90;;;;;;5034855;28;20137;-78
2023/10/04 11:28:26;;;;;;;21.13;4.80;;;16.60;99.90;;;;;;5034950;28;20497;-76
2023/10/04 11:30:53;;;;;;;14.38;4.25;;;16.70;99.90;;;;;;5034809;28;20049;-77
2023/10/04 11:33:19;;;;;;;16.58;4.10;;;16.80;99.90;;;;;;5034829;28;20046;-76
2023/10/04 11:35:47;;;;;;;18.10;4.10;;;16.80;99.90;;;;;;5034570;28;20052;-77
2023/10/04 11:38:15;;;;;;;19.17;3.97;;;16.70;99.90;;;;;;5035392;28;20482;-77
2023/10/04 11:40:49;;;;;;;15.10;3.92;;;16.80;99.90;;;;;;5034489;28;20057;-77
2023/10/04 11:43:18;;;;;;;17.65;4.47;;;16.80;99.90;;;;;;5034884;28;20072;-77
2023/10/04 11:45:44;;;;;;;17.15;3.83;;;16.80;99.90;;;;;;5034605;28;20468;-77
2023/10/04 11:48:10;;;;;;;19.00;4.20;;;16.80;99.90;;;;;;5034394;28;20041;-76
2023/10/04 11:50:45;;;;;;;13.77;4.32;;;16.80;99.90;;;;;;5034303;28;20081;-78
2023/10/04 11:53:12;;;;;;;15.32;3.97;;;16.90;99.90;;;;;;5034551;28;20053;-78
2023/10/04 11:55:38;;;;;;;15.25;3.70;;;16.90;99.90;;;;;;5034357;28;20041;-75
2023/10/04 11:58:07;;;;;;;13.55;3.80;;;17.00;99.90;;;;;;5034301;28;20042;-76
2023/10/04 12:00:33;;;;;;;14.82;3.67;;;17.00;99.90;;;;;;5034169;28;20474;-75
2023/10/04 12:02:59;;;;;;;18.33;3.67;;;17.00;99.90;;;;;;5034381;28;20055;-75
2023/10/04 12:05:26;;;;;;;16.00;3.65;;;17.10;99.90;;;;;;5035558;28;20171;-75
2023/10/04 12:07:51;;;;;;;16.83;3.10;;;17.00;99.90;;;;;;5034394;28;20045;-76
2023/10/04 12:10:18;;;;;;;14.65;3.75;;;17.10;99.90;;;;;;5033961;28;20053;-78
2023/10/04 12:12:44;;;;;;;13.70;3.40;;;17.10;99.90;;;;;;5033969;28;20053;-74
2023/10/04 12:15:10;;;;;;;19.65;3.83;;;17.20;99.90;;;;;;5035137;28;20167;-75
2023/10/04 12:17:36;;;;;;;18.00;3.83;;;17.20;99.90;;;;;;5034112;28;20473;-76
2023/10/04 12:20:07;;;;;;;10.80;2.75;;;17.30;99.90;;;;;;5033791;28;20061;-77
2023/10/04 12:22:32;;;;;;;13.63;3.55;;;17.30;99.90;;;;;;5033818;28;20142;-76
2023/10/04 12:25:00;;;;;;;14.70;3.42;;;17.30;99.90;;;;;;5033787;28;20050;-75
2023/10/04 12:27:27;;;;;;;14.70;3.70;;;17.30;99.90;;;;;;5033937;28;20095;-76
2023/10/04 12:29:52;;;;;;;14.50;3.45;;;17.30;99.90;;;;;;5034781;28;20485;-76
2023/10/04 12:32:19;;;;;;;13.50;3.60;;;17.30;99.90;;;;;;5033908;28;20060;-76
2023/10/04 12:34:45;;;;;;;13.30;2.88;;;17.30;99.90;;;;;;5033598;28;20117;-78
2023/10/04 12:37:14;;;;;;;17.40;3.78;;;17.30;99.90;;;;;;5033680;28;20496;-76
2023/10/04 12:39:43;;;;;;;14.63;3.95;;;17.20;99.90;;;;;;5033411;28;20052;-75
2023/10/04 12:42:09;;;;;;;13.07;3.20;;;17.20;99.90;;;;;;5033380;28;20128;-75
2023/10/04 12:44:37;;;;;;;13.95;3.33;;;17.20;99.90;;;;;;5033588;28;20045;-77
2023/10/04 12:47:03;;;;;;;14.85;3.30;;;17.20;99.90;;;;;;5033258;28;20192;-75